Lancelot — 5BCE3 — position and weather

sailwx.info

Track history (hours):
 
Tides and Currents Weather Stations Pressure Air Temp Water Temp Dewpoint Dewpoint Depression Visibility Wind Speed Wind Dir Waves Ship Positions

Lancelot

Last reported at 2018-Aug-07 10:02 UTC. Time now 2018-Aug-19 22:50 UTC.
Position N 01°27' E 104°31'.
Warning: this ship's position is 12 days out of date.

Length 291 m; draft 18.6 m.

Type: Cargo ship. MMSI: 209703000.

Date/timePositionNaut miles runAvg speedWind from/ knotsBaromVisibWave heightAir tempDewpointWater temp
2018-Aug-07 10:02N 01°27' E 104°31'311.1
2018-Aug-07 09:47N 01°25' E 104°29'310.9
2018-Aug-07 09:28N 01°23' E 104°27'610.9
2018-Aug-07 08:56N 01°19' E 104°22'510.7
2018-Aug-07 08:28N 01°16' E 104°18'510.6
2018-Aug-07 07:59N 01°16' E 104°13'510.6
2018-Aug-07 07:30N 01°15' E 104°08'610.6
2018-Aug-07 06:58N 01°14' E 104°02'510.6
2018-Aug-07 06:30N 01°14' E 103°57'510.1
2018-Aug-07 06:00N 01°12' E 103°53'4 9.0
2018-Aug-07 05:30N 01°10' E 103°49'510.0
2018-Aug-07 05:01N 01°07' E 103°45'510.3
2018-Aug-07 04:30N 01°04' E 103°41'5 9.7
2018-Aug-07 03:59N 01°05' E 103°35'510.0
2018-Aug-07 03:30N 01°07' E 103°31'611.1
2018-Aug-07 02:59N 01°10' E 103°27'611.0
2018-Aug-07 02:29N 01°13' E 103°22'611.3
2018-Aug-07 01:59N 01°17' E 103°18'  
2018-Jul-31 22:01N 01°31' E 103°07'213.9
2018-Jul-31 21:53N 01°30' E 103°08'513.9
2018-Jul-31 21:30N 01°26' E 103°12'913.8
2018-Jul-31 20:52N 01°20' E 103°18'512.8
2018-Jul-31 20:30N 01°17' E 103°22'713.0
2018-Jul-31 20:00N 01°13' E 103°27'612.2
2018-Jul-31 19:30N 01°12' E 103°33'611.5
2018-Jul-31 19:00N 01°11' E 103°39'511.0
2018-Jul-31 18:30N 01°09' E 103°44'611.2
2018-Jul-31 18:00N 01°11' E 103°49'613.1
2018-Jul-31 17:31N 01°14' E 103°55'612.2
2018-Jul-31 17:00N 01°16' E 104°01'4 7.9
2018-Jul-31 16:30N 01°17' E 104°04'1 1.9
2018-Jul-31 15:54N 01°18' E 104°05'0 0.0
2018-Jul-31 14:40N 01°18' E 104°05'0 0.2
2018-Jul-31 14:25N 01°18' E 104°05'0 0.0
2018-Jul-31 13:51N 01°18' E 104°05'0 0.0
2018-Jul-31 13:24N 01°18' E 104°05'0 0.0
2018-Jul-31 12:48N 01°18' E 104°05'0 0.1
2018-Jul-31 12:24N 01°18' E 104°05'0 0.0
2018-Jul-31 11:57N 01°18' E 104°05'0 0.1
2018-Jul-31 11:25N 01°18' E 104°05'0 0.1
2018-Jul-31 10:42N 01°18' E 104°05'0 0.2
2018-Jul-31 10:12N 01°18' E 104°05'0 0.0
2018-Jul-31 10:00N 01°18' E 104°05'0 0.1
2018-Jul-31 08:54N 01°19' E 104°05'0 0.0
2018-Jul-31 08:15N 01°19' E 104°05'0 0.1
2018-Jul-31 07:21N 01°18' E 104°05'0 0.0
2018-Jul-31 06:54N 01°18' E 104°05'0 0.2
2018-Jul-31 06:30N 01°18' E 104°05'0 0.1
2018-Jul-31 05:57N 01°18' E 104°05'0 0.1
2018-Jul-31 05:30N 01°18' E 104°05'0 0.2
2018-Jul-31 04:51N 01°18' E 104°05'0 0.2
2018-Jul-31 04:30N 01°18' E 104°05'0 0.1
2018-Jul-31 03:54N 01°19' E 104°05'0 0.2
2018-Jul-31 03:30N 01°18' E 104°05'0 0.3
2018-Jul-31 02:58N 01°18' E 104°05'3 6.1
2018-Jul-31 02:30N 01°17' E 104°08'5 8.8
2018-Jul-31 01:56N 01°18' E 104°13'4 9.3
2018-Jul-31 01:30N 01°18' E 104°17'6 9.4
2018-Jul-31 00:51N 01°21' E 104°22'411.6
2018-Jul-31 00:28N 01°24' E 104°25'3511.3
2018-Jul-30 21:21N 01°53' E 104°45'1211.3
2018-Jul-30 20:14N 02°04' E 104°50'311.1
2018-Jul-30 19:59N 02°07' E 104°51'  
Track history (hours):
 
Tides and Currents Weather Stations Pressure Air Temp Water Temp Dewpoint Dewpoint Depression Visibility Wind Speed Wind Dir Waves Ship Positions

Lancelot

Last reported at 2018-Aug-07 10:02 UTC. Time now 2018-Aug-19 22:50 UTC.
Position N 01°27' E 104°31'.
Warning: this ship's position is 12 days out of date.

Length 291 m; draft 18.6 m.

Type: Cargo ship. MMSI: 209703000.

Date/timePositionNaut miles runAvg speedWind from/ knotsBaromVisibWave heightAir tempDewpointWater temp
2018-Aug-07 10:02N 01°27' E 104°31'311.1
2018-Aug-07 09:47N 01°25' E 104°29'310.9
2018-Aug-07 09:28N 01°23' E 104°27'610.9
2018-Aug-07 08:56N 01°19' E 104°22'510.7
2018-Aug-07 08:28N 01°16' E 104°18'510.6
2018-Aug-07 07:59N 01°16' E 104°13'510.6
2018-Aug-07 07:30N 01°15' E 104°08'610.6
2018-Aug-07 06:58N 01°14' E 104°02'510.6
2018-Aug-07 06:30N 01°14' E 103°57'510.1
2018-Aug-07 06:00N 01°12' E 103°53'4 9.0
2018-Aug-07 05:30N 01°10' E 103°49'510.0
2018-Aug-07 05:01N 01°07' E 103°45'510.3
2018-Aug-07 04:30N 01°04' E 103°41'5 9.7
2018-Aug-07 03:59N 01°05' E 103°35'510.0
2018-Aug-07 03:30N 01°07' E 103°31'611.1
2018-Aug-07 02:59N 01°10' E 103°27'611.0
2018-Aug-07 02:29N 01°13' E 103°22'611.3
2018-Aug-07 01:59N 01°17' E 103°18'  
2018-Jul-31 22:01N 01°31' E 103°07'213.9
2018-Jul-31 21:53N 01°30' E 103°08'513.9
2018-Jul-31 21:30N 01°26' E 103°12'913.8
2018-Jul-31 20:52N 01°20' E 103°18'512.8
2018-Jul-31 20:30N 01°17' E 103°22'713.0
2018-Jul-31 20:00N 01°13' E 103°27'612.2
2018-Jul-31 19:30N 01°12' E 103°33'611.5
2018-Jul-31 19:00N 01°11' E 103°39'511.0
2018-Jul-31 18:30N 01°09' E 103°44'611.2
2018-Jul-31 18:00N 01°11' E 103°49'613.1
2018-Jul-31 17:31N 01°14' E 103°55'612.2
2018-Jul-31 17:00N 01°16' E 104°01'4 7.9
2018-Jul-31 16:30N 01°17' E 104°04'1 1.9
2018-Jul-31 15:54N 01°18' E 104°05'0 0.0
2018-Jul-31 14:40N 01°18' E 104°05'0 0.2
2018-Jul-31 14:25N 01°18' E 104°05'0 0.0
2018-Jul-31 13:51N 01°18' E 104°05'0 0.0
2018-Jul-31 13:24N 01°18' E 104°05'0 0.0
2018-Jul-31 12:48N 01°18' E 104°05'0 0.1
2018-Jul-31 12:24N 01°18' E 104°05'0 0.0
2018-Jul-31 11:57N 01°18' E 104°05'0 0.1
2018-Jul-31 11:25N 01°18' E 104°05'0 0.1
2018-Jul-31 10:42N 01°18' E 104°05'0 0.2
2018-Jul-31 10:12N 01°18' E 104°05'0 0.0
2018-Jul-31 10:00N 01°18' E 104°05'0 0.1
2018-Jul-31 08:54N 01°19' E 104°05'0 0.0
2018-Jul-31 08:15N 01°19' E 104°05'0 0.1
2018-Jul-31 07:21N 01°18' E 104°05'0 0.0
2018-Jul-31 06:54N 01°18' E 104°05'0 0.2
2018-Jul-31 06:30N 01°18' E 104°05'0 0.1
2018-Jul-31 05:57N 01°18' E 104°05'0 0.1
2018-Jul-31 05:30N 01°18' E 104°05'0 0.2
2018-Jul-31 04:51N 01°18' E 104°05'0 0.2
2018-Jul-31 04:30N 01°18' E 104°05'0 0.1
2018-Jul-31 03:54N 01°19' E 104°05'0 0.2
2018-Jul-31 03:30N 01°18' E 104°05'0 0.3
2018-Jul-31 02:58N 01°18' E 104°05'3 6.1
2018-Jul-31 02:30N 01°17' E 104°08'5 8.8
2018-Jul-31 01:56N 01°18' E 104°13'4 9.3
2018-Jul-31 01:30N 01°18' E 104°17'6 9.4
2018-Jul-31 00:51N 01°21' E 104°22'411.6
2018-Jul-31 00:28N 01°24' E 104°25'3511.3
2018-Jul-30 21:21N 01°53' E 104°45'1211.3
2018-Jul-30 20:14N 02°04' E 104°50'311.1
2018-Jul-30 19:59N 02°07' E 104°51'  

Dump ship's entire track history